Latest Weather Observations for Tibooburra Airport

IDN60801

Issued at 2:02 pm EDT Wednesday 1 April 2015 (issued every 30 minutes, with the page automatically refreshed every 10 minutes)

About weather observations | Map of weather stations | Latest weather observations for NSW | Other Formats
Station Details ID: 046126 Name: TIBOOBURRA AIRPORT Lat: -29.44 Lon: 142.06 Height: 176.4 m
Data from the previous 72 hours. | See also: Recent months for locations in New South Wales
Date/Time
EDT
Temp
°C
App
Temp
°C
Dew
Point
Rel
Hum
%
Delta-T
°C
Wind Press
QNH
hPa
Press
MSL
hPa
Rain
since 9 am
mm
Dir
 
Spd
km/h
Gust
km/h
Spd
kts
Gust
kts
01/02:00pm 32.6 - - - - NNW 9 13 5 7 1016.8 1016.1 0.0
01/01:30pm 32.5 - - - - N 13 20 7 11 1017.3 1016.7 0.0
01/01:00pm 32.1 - - - - NNE 11 20 6 11 1017.9 1017.3 0.0
01/12:30pm 31.2 - - - - NNE 19 28 10 15 1018.4 1017.8 0.0
01/12:00pm 30.6 - - - - NNE 15 20 8 11 1018.7 1018.1 0.0
01/11:30am 28.9 - - - - N 13 22 7 12 1019.1 1018.5 0.0
01/11:00am 28.1 - - - - NNE 15 20 8 11 1019.2 1018.6 0.0
01/10:30am 26.9 - - - - NE 17 20 9 11 1019.4 1018.5 0.0
01/10:00am 25.5 - - - - ENE 17 20 9 11 1019.2 1018.3 0.0
01/09:30am 23.8 - - - - ENE 15 19 8 10 1019.1 1018.2 0.0
01/09:00am 22.3 - - - - ENE 9 13 5 7 1018.8 1017.9 0.0
01/08:30am 20.4 - - - - E 9 11 5 6 1018.6 1017.7 0.0
01/08:00am 18.8 - - - - ESE 11 11 6 6 1018.3 1017.4 0.0
01/07:30am 18.7 - - - - ESE 11 13 6 7 1018.2 1017.3 0.0
01/07:00am 18.9 - - - - ESE 11 13 6 7 1018.0 1017.1 0.0
01/06:30am 19.3 - - - - ESE 9 11 5 6 1017.8 1016.8 0.0
01/06:00am 19.6 - - - - ESE 11 13 6 7 1017.6 1016.6 0.0
01/05:30am 19.8 - - - - ESE 13 15 7 8 1017.5 1016.5 0.0
01/05:00am 20.5 - - - - ESE 13 15 7 8 1017.5 1016.5 0.0
01/04:30am 20.8 - - - - ESE 13 15 7 8 1017.7 1016.7 0.0
01/04:00am 21.2 - - - - ESE 13 17 7 9 1017.9 1017.0 0.0
01/03:30am 21.4 - - - - ESE 11 13 6 7 1018.2 1017.3 0.0
01/03:00am 21.6 - - - - ESE 11 15 6 8 1018.4 1017.5 0.0
01/02:30am 22.4 - - - - SE 11 13 6 7 1018.8 1017.9 0.0
01/02:00am 22.8 - - - - SE 11 13 6 7 1019.1 1018.2 0.0
01/01:30am 23.1 - - - - ESE 13 15 7 8 1019.1 1018.2 0.0
01/01:00am 24.0 - - - - ESE 15 17 8 9 1019.1 1018.2 0.0
01/12:30am 24.6 - - - - ESE 19 22 10 12 1019.1 1018.2 0.0
01/12:00am 25.1 - - - - ESE 17 20 9 11 1019.5 1018.6 0.0
 
Date/Time
EDT
Temp
°C
App
Temp
°C
Dew
Point
Rel
Hum
%
Delta-T
°C
Wind Press
QNH
hPa
Press
MSL
hPa
Rain
since 9 am
mm
Dir
 
Spd
km/h
Gust
km/h
Spd
kts
Gust
kts
31/11:30pm 24.9 - - - - ESE 15 17 8 9 1019.8 1018.9 0.0
31/11:00pm 24.9 - - - - SE 13 15 7 8 1019.8 1018.9 0.0
31/10:30pm 25.5 - - - - SE 13 15 7 8 1019.7 1018.8 0.0
31/10:00pm 25.9 - - - - SSE 11 13 6 7 1019.6 1018.7 0.0
31/09:30pm 26.1 - - - - S 11 13 6 7 1019.5 1018.6 0.0
31/09:00pm 27.2 - - - - SSE 11 13 6 7 1019.1 1018.2 0.0
31/08:30pm 27.9 - - - - SE 11 13 6 7 1018.7 1017.8 0.0
31/08:00pm 28.8 - - - - SE 13 15 7 8 1018.2 1017.3 0.0
31/07:30pm 30.2 - - - - SE 13 17 7 9 1017.8 1016.8 0.0
31/07:00pm 31.2 - - - - SE 13 19 7 10 1017.5 1016.5 0.0
31/06:30pm 31.9 - - - - ESE 15 20 8 11 1017.4 1016.4 0.0
31/06:00pm 32.3 - - - - ENE 15 24 8 13 1017.2 1016.2 0.0
31/05:30pm 32.5 - - - - SE 13 19 7 10 1017.2 1016.2 0.0
31/05:00pm 32.5 - - - - ENE 15 20 8 11 1017.4 1016.4 0.0
31/04:30pm 32.4 - - - - SE 11 20 6 11 1017.5 1016.5 0.0
31/04:00pm 32.1 - - - - ESE 11 22 6 12 1017.9 1017.0 0.0
31/03:30pm 32.1 - - - - SE 13 30 7 16 1018.3 1017.4 0.0
31/03:00pm 32.3 - - - - ENE 15 30 8 16 1018.7 1017.8 0.0
31/02:30pm 31.5 - - - - ESE 15 22 8 12 1019.2 1018.3 0.0
31/02:00pm 31.5 - - - - ENE 17 28 9 15 1019.8 1018.9 0.0
31/01:30pm 30.7 - - - - SE 15 26 8 14 1020.3 1019.4 0.0
31/01:00pm 30.9 - - - - SE 13 20 7 11 1020.9 1020.0 0.0
31/12:30pm 29.9 - - - - SE 15 20 8 11 1021.6 1020.7 0.0
31/12:00pm 29.5 - - - - SE 13 20 7 11 1021.9 1021.0 0.0
31/11:30am 28.2 - - - - ESE 13 17 7 9 1022.3 1021.3 0.0
31/11:00am 27.3 - - - - ESE 15 22 8 12 1022.3 1021.3 0.0
31/10:30am 25.8 - - - - SE 13 19 7 10 1022.3 1021.3 0.0
31/10:00am 25.0 - - - - ESE 17 20 9 11 1022.2 1021.2 0.0
31/09:30am 22.6 - - - - SSE 11 15 6 8 1022.3 1021.3 0.0
31/09:00am 20.7 - - - - SSW 11 13 6 7 1021.9 1021.0 0.0
31/08:30am 18.5 - - - - SW 9 11 5 6 1021.6 1020.7 0.0
31/08:00am 17.3 - - - - SSW 9 11 5 6 1021.5 1020.6 0.0
31/07:30am 17.3 - - - - SSW 9 11 5 6 1021.2 1020.3 0.0
31/07:00am 17.8 - - - - SSW 9 13 5 7 1020.8 1019.9 0.0
31/06:30am 17.6 - - - - SSW 9 11 5 6 1020.7 1019.8 0.0
31/06:00am 18.2 - - - - SSW 9 11 5 6 1020.5 1019.6 0.0
31/05:30am 18.2 - - - - S 11 13 6 7 1020.4 1019.5 0.0
31/05:00am 19.5 - - - - S 11 15 6 8 1020.4 1019.5 0.0
31/04:30am 19.8 - - - - S 13 15 7 8 1020.4 1019.5 0.0
31/04:00am 20.4 - - - - SSE 13 17 7 9 1020.6 1019.7 0.0
31/03:30am 20.8 - - - - SSE 15 19 8 10 1020.9 1020.0 0.0
31/03:00am 20.5 - - - - S 13 17 7 9 1021.1 1020.2 0.0
31/02:30am 20.9 - - - - SSE 15 19 8 10 1021.4 1020.5 0.0
31/02:00am 21.4 - - - - SSE 15 19 8 10 1021.5 1020.6 0.0
31/01:30am 21.8 - - - - SSE 15 17 8 9 1021.7 1020.8 0.0
31/01:00am 22.0 - - - - SSE 13 17 7 9 1021.8 1020.9 0.0
31/12:30am 21.4 - - - - S 11 13 6 7 1021.8 1020.9 0.0
31/12:00am 22.2 - - - - S 13 17 7 9 1022.0 1021.1 0.0
 
Date/Time
EDT
Temp
°C
App
Temp
°C
Dew
Point
Rel
Hum
%
Delta-T
°C
Wind Press
QNH
hPa
Press
MSL
hPa
Rain
since 9 am
mm
Dir
 
Spd
km/h
Gust
km/h
Spd
kts
Gust
kts
30/11:30pm 22.7 - - - - S 15 19 8 10 1022.2 1021.2 0.0
30/11:00pm 22.9 - - - - SSW 13 17 7 9 1022.2 1021.2 0.0
30/10:30pm 23.0 - - - - S 13 13 7 7 1022.2 1021.2 0.0
30/10:00pm 23.7 - - - - S 11 13 6 7 1022.0 1021.1 0.0
30/09:30pm 24.8 - - - - S 13 15 7 8 1021.7 1020.8 0.0
30/09:00pm 25.3 - - - - S 13 15 7 8 1021.5 1020.6 0.0
30/08:30pm 26.2 - - - - S 13 15 7 8 1021.2 1020.3 0.0
30/08:00pm 27.0 - - - - S 15 17 8 9 1020.8 1019.9 0.0
30/07:30pm 28.0 - - - - S 17 24 9 13 1020.4 1019.5 0.0
30/07:00pm 28.9 - - - - S 17 24 9 13 1020.1 1019.2 0.0
30/06:30pm 29.5 - - - - S 15 20 8 11 1020.0 1019.1 0.0
30/06:00pm 30.3 - - - - S 13 22 7 12 1019.8 1018.9 0.0
30/05:30pm 29.8 - - - - S 13 24 7 13 1019.7 1018.8 0.0
30/05:00pm 30.1 - - - - SE 15 20 8 11 1019.7 1018.8 0.0
30/04:30pm 30.4 - - - - S 13 28 7 15 1019.8 1018.9 0.0
30/04:00pm 30.0 - - - - SSE 17 26 9 14 1020.0 1019.1 0.0
30/03:30pm 29.6 - - - - S 17 30 9 16 1020.2 1019.3 0.0
30/03:00pm 30.0 - - - - S 9 22 5 12 1020.4 1019.5 0.0
30/02:30pm 28.8 - - - - ESE 17 26 9 14 1021.0 1020.1 0.0
30/02:00pm 28.8 - - - - ESE 13 22 7 12 1021.3 1020.4 0.0
30/01:30pm 28.7 - - - - SE 15 26 8 14 1021.8 1020.9 0.0
30/01:00pm 28.0 - - - - SE 19 33 10 18 1022.4 1021.4 0.0
30/12:30pm 27.9 - - - - SE 17 28 9 15 1022.9 1022.0 0.0
30/12:00pm 26.7 - - - - SE 20 28 11 15 1023.2 1022.3 0.0
30/11:30am 26.1 - - - - SE 22 30 12 16 1023.7 1022.8 0.0
30/11:00am 25.2 - - - - SE 22 32 12 17 1023.9 1023.0 0.0
30/10:30am 24.6 - - - - SE 20 30 11 16 1023.9 1023.0 0.0
30/10:00am 23.3 - - - - SE 17 24 9 13 1023.9 1023.0 0.0
30/09:30am 21.7 - - - - SSE 17 20 9 11 1023.8 1022.9 0.0
30/09:00am 20.0 - - - - S 13 19 7 10 1023.7 1022.8 0.0
30/08:30am 18.2 - - - - SSW 13 15 7 8 1023.3 1022.4 0.0
30/08:00am 17.2 - - - - S 15 17 8 9 1023.0 1022.1 0.0
30/07:30am 16.9 - - - - SSW 13 15 7 8 1022.6 1021.6 0.0
30/07:00am 16.9 - - - - S 11 13 6 7 1022.3 1021.3 0.0
30/06:30am 17.6 - - - - SSE 9 13 5 7 1021.9 1021.0 0.0
30/06:00am 17.8 - - - - SSE 9 11 5 6 1021.7 1020.8 0.0
30/05:30am 18.5 - - - - SSE 13 15 7 8 1021.5 1020.6 0.0
30/05:00am 18.5 - - - - S 13 15 7 8 1021.5 1020.6 0.0
30/04:30am 18.8 - - - - SSW 13 15 7 8 1021.5 1020.6 0.0
30/04:00am 19.7 - - - - S 15 17 8 9 1021.6 1020.7 0.0
30/03:30am 20.5 - - - - SSE 17 22 9 12 1021.7 1020.8 0.0
30/03:00am 21.2 - - - - SSE 17 20 9 11 1021.9 1021.0 0.0
30/02:30am 21.6 - - - - SSE 17 22 9 12 1022.3 1021.3 0.0
30/02:00am 21.9 - - - - SSE 17 24 9 13 1022.5 1021.5 0.0
30/01:30am 22.2 - - - - SSE 17 22 9 12 1022.6 1021.6 0.0
30/01:00am 22.4 - - - - SSE 19 28 10 15 1022.7 1021.7 0.0
30/12:30am 22.7 - - - - SSE 19 24 10 13 1022.8 1021.8 0.0
30/12:00am 22.9 - - - - SSE 19 26 10 14 1022.9 1022.0 0.0
 
Date/Time
EDT
Temp
°C
App
Temp
°C
Dew
Point
Rel
Hum
%
Delta-T
°C
Wind Press
QNH
hPa
Press
MSL
hPa
Rain
since 9 am
mm
Dir
 
Spd
km/h
Gust
km/h
Spd
kts
Gust
kts
29/11:30pm 23.2 - - - - SSE 17 26 9 14 1022.8 1021.8 0.0
29/11:00pm 23.1 - - - - S 11 13 6 7 1022.9 1022.0 0.0
29/10:30pm 23.1 - - - - S 11 13 6 7 1022.6 1021.6 0.0
29/10:00pm 23.1 - - - - S 11 15 6 8 1022.4 1021.4 0.0
29/09:30pm 23.2 - - - - S 15 17 8 9 1022.0 1021.1 0.0
29/09:00pm 23.4 - - - - S 17 20 9 11 1021.7 1020.8 0.0
29/08:30pm 23.7 - - - - S 17 20 9 11 1021.2 1020.3 0.0
29/08:00pm 24.2 - - - - S 20 24 11 13 1021.0 1020.1 0.0
29/07:30pm 24.5 - - - - SSE 19 24 10 13 1020.9 1020.0 0.0
29/07:00pm 24.8 - - - - SSE 15 20 8 11 1020.9 1020.0 0.0
29/06:30pm 25.1 - - - - SSE 17 20 9 11 1020.9 1020.0 0.0
29/06:00pm 25.4 - - - - SSE 15 20 8 11 1020.8 1019.9 0.0
29/05:30pm 25.7 - - - - SSE 17 20 9 11 1020.7 1019.8 0.0
29/05:00pm 25.8 - - - - SSE 17 22 9 12 1020.6 1019.7 0.0
29/04:30pm 25.9 - - - - SE 13 19 7 10 1020.6 1019.7 0.0
29/04:00pm 26.1 - - - - SE 19 26 10 14 1020.3 1019.4 0.0
29/03:30pm 26.6 - - - - SSE 20 26 11 14 1020.6 1019.7 0.0
29/03:00pm 26.7 - - - - S 19 22 10 12 1021.8 1020.9 0.0
29/02:30pm 26.9 - - - - SSW 15 19 8 10 1022.5 1021.5 0.0

Other Formats:

Comma delimited format used in spreadsheet applications
http://www.bom.gov.au/fwo/IDN60801/IDN60801.95485.axf

JavaScript Object Notation format (JSON) in row-major order
http://www.bom.gov.au/fwo/IDN60801/IDN60801.95485.json